Time;durP1;ratioP1;P1;durP2;ratioP2;P2;SDS_P1;SDS_P2;PMS_P1;PMS_P2;Temp;Humidity;BMP_temperature;BMP_pressure;BME280_temperature;BME280_humidity;BME280_pressure;Samples;Min_cycle;Max_cycle;Signal;HPM_P1;HPM_P2
2022/08/05 00:00:17;;;;;;;1.95;1.85;;;26.40;99.90;;;;;;5052890;28;20257;-76
2022/08/05 00:02:45;;;;;;;1.83;1.73;;;26.30;99.90;;;;;;5041331;28;20215;-76
2022/08/05 00:05:12;;;;;;;2.05;1.95;;;26.30;99.90;;;;;;5029715;28;20222;-76
2022/08/05 00:07:39;;;;;;;2.20;2.00;;;26.10;99.90;;;;;;5028430;28;20223;-77
2022/08/05 00:10:06;;;;;;;2.97;2.13;;;26.10;99.90;;;;;;5023906;28;20196;-76
2022/08/05 00:12:35;;;;;;;2.00;1.90;;;26.10;99.90;;;;;;5026360;28;20242;-76
2022/08/05 00:15:02;;;;;;;2.45;2.25;;;26.20;99.90;;;;;;5027396;28;20207;-75
2022/08/05 00:17:29;;;;;;;2.17;2.08;;;26.20;99.90;;;;;;5030376;28;20219;-76
2022/08/05 00:19:56;;;;;;;2.05;1.95;;;26.20;99.90;;;;;;5028199;28;20226;-75
2022/08/05 00:22:23;;;;;;;3.65;2.20;;;26.20;99.90;;;;;;5029408;28;20227;-75
2022/08/05 00:24:50;;;;;;;3.28;2.20;;;26.20;99.90;;;;;;5028033;28;20626;-76
2022/08/05 00:27:17;;;;;;;2.08;1.98;;;26.20;99.90;;;;;;5027859;28;20222;-75
2022/08/05 00:29:45;;;;;;;2.25;2.08;;;26.10;99.90;;;;;;5032387;28;20208;-75
2022/08/05 00:32:12;;;;;;;2.10;2.00;;;26.00;99.90;;;;;;5031379;28;20299;-76
2022/08/05 00:34:40;;;;;;;2.70;2.28;;;26.10;99.90;;;;;;5034769;28;20200;-76
2022/08/05 00:37:07;;;;;;;1.98;1.88;;;26.10;99.90;;;;;;5031102;28;20226;-75
2022/08/05 00:39:34;;;;;;;2.35;2.15;;;26.10;99.90;;;;;;5030802;28;20223;-76
2022/08/05 00:42:01;;;;;;;2.55;2.35;;;26.10;99.90;;;;;;5032205;28;20219;-76
2022/08/05 00:44:28;;;;;;;1.90;1.80;;;26.10;99.90;;;;;;5027937;28;20782;-75
2022/08/05 00:46:56;;;;;;;3.03;2.50;;;26.00;99.90;;;;;;5034268;28;20203;-76
2022/08/05 00:49:23;;;;;;;2.13;2.03;;;25.90;99.90;;;;;;5028085;28;20191;-76
2022/08/05 00:51:50;;;;;;;3.05;2.10;;;25.90;99.90;;;;;;5036877;28;20605;-76
2022/08/05 00:54:18;;;;;;;2.20;2.00;;;26.00;99.90;;;;;;5026097;28;20215;-74
2022/08/05 00:56:45;;;;;;;2.30;2.10;;;26.00;99.90;;;;;;5037087;28;20633;-75
2022/08/05 00:59:12;;;;;;;2.58;2.38;;;25.90;99.90;;;;;;5035219;28;20223;-76
2022/08/05 01:01:40;;;;;;;2.10;2.00;;;25.70;99.90;;;;;;5032957;28;20211;-75
2022/08/05 01:04:08;;;;;;;2.65;2.10;;;25.60;99.90;;;;;;5032018;28;20211;-77
2022/08/05 01:06:35;;;;;;;2.17;2.08;;;25.50;99.90;;;;;;5030248;28;20670;-76
2022/08/05 01:09:04;;;;;;;2.45;2.00;;;25.50;99.90;;;;;;5027701;28;20889;-76
2022/08/05 01:11:36;;;;;;;2.83;1.77;;;25.50;99.90;;;;;;5029912;28;20658;-77
2022/08/05 01:14:10;;;;;;;2.05;1.95;;;25.50;99.90;;;;;;5027678;28;20297;-75
2022/08/05 01:16:47;;;;;;;2.55;2.08;;;25.30;99.90;;;;;;5029098;28;20215;-73
2022/08/05 01:19:30;;;;;;;2.42;2.33;;;25.20;99.90;;;;;;5029852;28;20787;-75
2022/08/05 01:22:14;;;;;;;2.47;2.28;;;25.30;99.90;;;;;;5032862;28;20206;-76
2022/08/05 01:24:54;;;;;;;2.22;2.13;;;25.40;99.90;;;;;;5031953;28;20203;-77
2022/08/05 01:27:39;;;;;;;3.40;2.83;;;25.30;99.90;;;;;;5033072;28;20215;-76
2022/08/05 01:30:08;;;;;;;2.95;2.55;;;25.20;99.90;;;;;;5036337;28;20195;-75
2022/08/05 01:32:36;;;;;;;2.72;2.53;;;25.10;99.90;;;;;;5034894;28;20233;-76
2022/08/05 01:35:08;;;;;;;2.75;2.55;;;25.00;99.90;;;;;;5054116;28;20245;-75
2022/08/05 01:37:39;;;;;;;2.70;2.50;;;24.90;99.90;;;;;;5051516;28;20229;-76
2022/08/05 01:40:09;;;;;;;2.60;2.40;;;25.00;99.90;;;;;;5052574;28;20317;-76
2022/08/05 01:42:38;;;;;;;2.97;2.70;;;25.00;99.90;;;;;;5048585;28;20231;-76
2022/08/05 01:45:08;;;;;;;3.33;2.72;;;25.00;99.90;;;;;;5054809;28;20207;-76
2022/08/05 01:47:36;;;;;;;2.80;2.60;;;25.00;99.90;;;;;;5053877;28;20230;-76
2022/08/05 01:50:06;;;;;;;2.60;2.40;;;25.10;99.90;;;;;;5052345;28;20207;-77
2022/08/05 01:52:36;;;;;;;2.80;2.60;;;25.20;99.90;;;;;;5056015;28;20230;-76
2022/08/05 01:55:09;;;;;;;2.60;2.40;;;25.20;99.90;;;;;;5052274;28;20188;-76
2022/08/05 01:57:40;;;;;;;2.67;2.47;;;25.10;99.90;;;;;;5057290;28;20241;-77
2022/08/05 02:00:10;;;;;;;2.58;2.38;;;25.00;99.90;;;;;;5058073;28;20218;-76
2022/08/05 02:02:41;;;;;;;2.33;2.22;;;25.00;99.90;;;;;;5048470;28;20230;-77
2022/08/05 02:05:13;;;;;;;2.85;2.55;;;25.20;99.90;;;;;;5057400;28;20202;-75
2022/08/05 02:07:42;;;;;;;2.10;2.00;;;25.10;99.90;;;;;;5053600;28;20215;-77
2022/08/05 02:10:11;;;;;;;2.60;2.40;;;25.00;99.90;;;;;;5057896;28;20293;-75
2022/08/05 02:12:43;;;;;;;2.67;2.47;;;25.10;99.90;;;;;;5051849;28;20314;-77
2022/08/05 02:15:15;;;;;;;2.58;2.38;;;25.30;99.90;;;;;;5058534;28;20594;-76
2022/08/05 02:17:49;;;;;;;2.70;2.50;;;25.40;99.90;;;;;;5056066;28;20218;-77
2022/08/05 02:20:21;;;;;;;3.05;2.75;;;25.50;99.90;;;;;;5049424;28;20237;-76
2022/08/05 02:22:55;;;;;;;2.28;2.17;;;25.50;99.90;;;;;;5051350;28;20717;-76
2022/08/05 02:25:26;;;;;;;2.47;2.33;;;25.50;99.90;;;;;;5053805;28;20198;-77
2022/08/05 02:27:56;;;;;;;2.47;2.28;;;25.60;99.90;;;;;;5041495;28;20306;-78
2022/08/05 02:30:26;;;;;;;2.30;2.10;;;25.60;99.90;;;;;;5029887;28;20204;-76
2022/08/05 02:32:57;;;;;;;2.58;2.38;;;25.60;99.90;;;;;;5029791;28;20230;-77
2022/08/05 02:35:28;;;;;;;2.55;2.35;;;25.60;99.90;;;;;;5028966;28;20198;-76
2022/08/05 02:37:56;;;;;;;2.58;2.38;;;25.60;99.90;;;;;;5028681;28;20223;-76
2022/08/05 02:40:25;;;;;;;2.30;2.20;;;25.60;99.90;;;;;;5024084;28;21726;-77
2022/08/05 02:42:54;;;;;;;2.20;2.10;;;25.60;99.90;;;;;;5026387;28;20706;-77
2022/08/05 02:45:22;;;;;;;2.47;2.25;;;25.60;99.90;;;;;;5028851;28;20205;-76
2022/08/05 02:47:51;;;;;;;2.45;2.10;;;25.50;99.90;;;;;;5028231;28;20227;-79
2022/08/05 02:50:19;;;;;;;2.55;2.35;;;25.50;99.90;;;;;;5025773;28;20204;-77
2022/08/05 02:52:47;;;;;;;2.30;2.20;;;25.50;99.90;;;;;;5028031;28;20232;-76
2022/08/05 02:55:15;;;;;;;2.72;2.53;;;25.50;99.90;;;;;;5027083;28;20211;-77
2022/08/05 02:57:42;;;;;;;2.50;2.40;;;25.50;99.90;;;;;;5032216;28;20212;-76
2022/08/05 03:00:13;;;;;;;2.33;2.22;;;25.50;99.90;;;;;;5033979;28;20724;-77
2022/08/05 03:02:43;;;;;;;2.88;2.58;;;25.50;99.90;;;;;;5031177;28;20775;-76
2022/08/05 03:05:13;;;;;;;2.47;2.28;;;25.50;99.90;;;;;;5030293;28;20199;-77
2022/08/05 03:07:43;;;;;;;2.40;2.20;;;25.50;99.90;;;;;;5028224;28;20343;-77
2022/08/05 03:10:10;;;;;;;2.05;1.95;;;25.50;99.90;;;;;;5033699;28;20608;-77
2022/08/05 03:12:39;;;;;;;2.30;2.20;;;25.50;99.90;;;;;;5028425;28;20227;-76
2022/08/05 03:15:09;;;;;;;2.25;2.10;;;25.40;99.90;;;;;;5033254;28;20198;-76
2022/08/05 03:17:36;;;;;;;2.22;2.13;;;25.50;99.90;;;;;;5030050;28;20273;-78
2022/08/05 03:20:03;;;;;;;2.05;1.95;;;25.40;99.90;;;;;;5026400;28;20701;-76
2022/08/05 03:22:32;;;;;;;2.00;1.90;;;25.40;99.90;;;;;;5024090;28;20624;-76
2022/08/05 03:25:00;;;;;;;2.22;2.03;;;25.40;99.90;;;;;;5028812;28;20262;-76
2022/08/05 03:27:27;;;;;;;2.22;2.10;;;25.30;99.90;;;;;;5027481;28;20219;-77
2022/08/05 03:29:54;;;;;;;2.50;2.40;;;25.20;99.90;;;;;;5025004;28;20598;-76
2022/08/05 03:32:22;;;;;;;2.20;2.10;;;25.20;99.90;;;;;;5024570;28;20264;-78
2022/08/05 03:34:49;;;;;;;2.15;2.05;;;25.10;99.90;;;;;;5028267;28;20706;-77
2022/08/05 03:37:16;;;;;;;2.25;2.15;;;25.10;99.90;;;;;;5027838;28;20226;-77
2022/08/05 03:39:56;;;;;;;2.13;2.03;;;25.20;99.90;;;;;;5025844;28;20274;-77
2022/08/05 03:42:23;;;;;;;2.80;2.25;;;25.10;99.90;;;;;;5026315;28;20227;-77
2022/08/05 03:44:50;;;;;;;2.50;2.30;;;25.10;99.90;;;;;;5027537;28;20198;-78
2022/08/05 03:47:17;;;;;;;2.22;2.13;;;25.10;99.90;;;;;;5027525;28;20223;-76
2022/08/05 03:49:44;;;;;;;2.55;2.35;;;25.10;99.90;;;;;;5026490;28;20192;-78
2022/08/05 03:52:16;;;;;;;1.98;1.88;;;25.10;99.90;;;;;;5023276;28;20227;-76
2022/08/05 03:54:49;;;;;;;2.15;2.05;;;25.10;99.90;;;;;;5027669;28;20203;-77
2022/08/05 03:57:20;;;;;;;2.30;2.20;;;25.00;99.90;;;;;;5022018;28;20220;-76
2022/08/05 03:59:53;;;;;;;2.40;2.10;;;25.00;99.90;;;;;;5030148;28;20195;-77
2022/08/05 04:02:22;;;;;;;2.45;2.25;;;25.00;99.90;;;;;;5021353;28;20223;-78
2022/08/05 04:04:49;;;;;;;2.67;2.47;;;25.00;99.90;;;;;;5026083;28;20195;-76
2022/08/05 04:07:16;;;;;;;2.30;2.10;;;25.00;99.90;;;;;;5027661;28;20228;-76
2022/08/05 04:09:43;;;;;;;2.30;2.20;;;25.10;99.90;;;;;;5028418;28;20662;-76
2022/08/05 04:12:11;;;;;;;2.60;2.40;;;25.00;99.90;;;;;;5025524;28;20231;-77
2022/08/05 04:14:39;;;;;;;2.22;2.13;;;25.00;99.90;;;;;;5030896;28;20222;-78
2022/08/05 04:17:10;;;;;;;2.45;2.25;;;25.00;99.90;;;;;;5029122;28;20594;-76
2022/08/05 04:19:42;;;;;;;2.20;2.10;;;25.00;99.90;;;;;;5031172;28;20232;-77
2022/08/05 04:22:09;;;;;;;2.35;2.15;;;25.00;99.90;;;;;;5029691;28;20227;-77
2022/08/05 04:24:37;;;;;;;2.50;2.30;;;25.00;99.90;;;;;;5031234;28;20641;-76
2022/08/05 04:27:04;;;;;;;2.50;2.30;;;25.00;99.90;;;;;;5030799;28;20219;-78
2022/08/05 04:29:31;;;;;;;2.83;2.63;;;25.00;99.90;;;;;;5029595;28;20204;-77
2022/08/05 04:32:00;;;;;;;2.38;2.17;;;25.00;99.90;;;;;;5026602;28;20191;-77
2022/08/05 04:34:27;;;;;;;2.35;2.25;;;25.00;99.90;;;;;;5025140;28;20203;-76
2022/08/05 04:36:54;;;;;;;2.38;2.28;;;25.00;99.90;;;;;;5027616;28;20204;-77
2022/08/05 04:39:21;;;;;;;2.75;2.13;;;25.00;99.90;;;;;;5026995;28;20227;-77
2022/08/05 04:41:48;;;;;;;2.53;2.33;;;25.00;99.90;;;;;;5028825;28;20227;-78
2022/08/05 04:44:16;;;;;;;2.70;2.50;;;25.10;99.90;;;;;;5029651;28;20191;-76
2022/08/05 04:46:43;;;;;;;2.70;2.50;;;25.20;99.90;;;;;;5030772;28;20200;-77
2022/08/05 04:49:11;;;;;;;2.25;2.10;;;25.20;99.90;;;;;;5027580;28;20199;-76
2022/08/05 04:51:38;;;;;;;2.13;1.98;;;25.20;99.90;;;;;;5031293;28;20207;-77
2022/08/05 04:54:06;;;;;;;2.30;2.10;;;25.30;99.90;;;;;;5029567;28;20223;-76
2022/08/05 04:56:33;;;;;;;2.42;2.22;;;25.20;99.90;;;;;;5034874;28;20206;-77
2022/08/05 04:59:00;;;;;;;2.45;2.25;;;25.20;99.90;;;;;;5031627;28;20227;-78
2022/08/05 05:01:27;;;;;;;2.30;2.20;;;25.20;99.90;;;;;;5031666;28;20206;-77
2022/08/05 05:03:54;;;;;;;2.65;2.45;;;25.30;99.90;;;;;;5032481;28;20235;-76
2022/08/05 05:06:23;;;;;;;2.42;2.33;;;25.40;99.90;;;;;;5029782;28;20573;-75
2022/08/05 05:08:50;;;;;;;2.60;2.40;;;25.50;99.90;;;;;;5031133;28;20222;-77
2022/08/05 05:11:17;;;;;;;2.25;2.15;;;25.60;99.90;;;;;;5028142;28;20644;-75
2022/08/05 05:13:44;;;;;;;4.85;2.55;;;25.60;99.90;;;;;;5051167;28;21144;-77
2022/08/05 05:16:11;;;;;;;2.35;2.25;;;25.60;99.90;;;;;;5057440;28;20191;-77
2022/08/05 05:18:38;;;;;;;2.97;2.78;;;25.70;99.90;;;;;;5054990;28;20218;-78
2022/08/05 05:21:06;;;;;;;2.60;2.50;;;25.80;99.90;;;;;;5058389;28;20225;-76
2022/08/05 05:23:34;;;;;;;2.88;2.67;;;26.00;99.90;;;;;;5037966;28;20223;-77
2022/08/05 05:26:01;;;;;;;3.90;2.55;;;26.20;99.90;;;;;;5029983;28;20207;-77
2022/08/05 05:28:28;;;;;;;2.55;2.35;;;26.30;99.90;;;;;;5030270;28;20220;-77
2022/08/05 05:30:55;;;;;;;5.63;2.88;;;26.40;99.90;;;;;;5034887;28;20176;-76
2022/08/05 05:33:23;;;;;;;3.15;2.95;;;26.50;99.90;;;;;;5037760;28;20250;-78
2022/08/05 05:35:50;;;;;;;3.20;2.75;;;26.50;99.90;;;;;;5033018;28;20196;-76
2022/08/05 05:38:17;;;;;;;8.18;2.90;;;26.50;99.90;;;;;;5035941;28;20261;-76
2022/08/05 05:40:46;;;;;;;3.25;2.60;;;26.60;99.90;;;;;;5035019;28;20215;-77
2022/08/05 05:43:13;;;;;;;3.47;3.17;;;26.60;99.90;;;;;;5034666;28;20223;-76
2022/08/05 05:45:40;;;;;;;2.97;2.78;;;26.60;99.90;;;;;;5068937;22;20223;-74
2022/08/05 05:48:07;;;;;;;3.22;2.92;;;26.70;99.90;;;;;;5054212;28;20715;-74
2022/08/05 05:50:35;;;;;;;3.47;2.80;;;26.70;99.90;;;;;;5046382;28;20248;-73
2022/08/05 05:53:02;;;;;;;3.20;2.90;;;26.70;99.90;;;;;;5051048;28;20214;-75
2022/08/05 05:55:29;;;;;;;2.83;2.63;;;26.60;99.90;;;;;;5051295;28;20213;-73
2022/08/05 05:57:57;;;;;;;3.88;3.17;;;26.60;99.90;;;;;;5052518;28;20211;-74
2022/08/05 06:00:25;;;;;;;3.55;2.67;;;26.60;99.90;;;;;;5049245;28;20226;-74
2022/08/05 06:02:52;;;;;;;2.75;2.55;;;26.70;99.90;;;;;;5040478;28;20226;-75
2022/08/05 06:05:20;;;;;;;3.20;2.90;;;26.80;99.90;;;;;;5030127;28;20230;-75
2022/08/05 06:07:48;;;;;;;2.83;2.63;;;27.00;99.90;;;;;;5031084;28;20219;-76
2022/08/05 06:10:15;;;;;;;4.30;3.20;;;27.10;99.90;;;;;;5049671;28;20257;-74
2022/08/05 06:12:43;;;;;;;3.40;3.10;;;27.10;99.90;;;;;;5051087;28;20234;-75
2022/08/05 06:15:12;;;;;;;3.22;2.95;;;27.10;99.90;;;;;;5054729;28;20229;-75
2022/08/05 06:17:39;;;;;;;3.88;3.10;;;27.20;99.90;;;;;;5045837;28;20259;-76
2022/08/05 06:20:07;;;;;;;4.03;3.08;;;27.10;99.90;;;;;;5050455;28;20219;-76
2022/08/05 06:22:35;;;;;;;3.47;3.17;;;27.20;99.90;;;;;;5045605;28;20223;-75
2022/08/05 06:25:03;;;;;;;3.33;3.03;;;27.20;99.90;;;;;;5043105;28;20642;-74
2022/08/05 06:27:30;;;;;;;3.35;3.15;;;27.30;99.90;;;;;;5050756;28;20739;-76
2022/08/05 06:29:57;;;;;;;4.00;3.42;;;27.50;99.90;;;;;;5054257;28;20210;-76
2022/08/05 06:32:25;;;;;;;3.53;3.30;;;27.50;99.90;;;;;;5053715;28;20214;-75
2022/08/05 06:34:52;;;;;;;3.78;3.47;;;27.40;99.90;;;;;;5046250;28;20260;-74
2022/08/05 06:37:19;;;;;;;4.10;3.72;;;27.30;99.90;;;;;;5055748;28;20229;-75
2022/08/05 06:39:47;;;;;;;5.53;4.00;;;27.20;99.90;;;;;;5050587;28;20218;-75
2022/08/05 06:42:15;;;;;;;4.25;3.92;;;27.30;99.90;;;;;;5049070;28;20230;-75
2022/08/05 06:44:42;;;;;;;3.60;3.30;;;27.20;99.90;;;;;;5048949;28;20891;-75
2022/08/05 06:47:10;;;;;;;4.00;3.58;;;27.20;99.90;;;;;;5044367;28;20227;-75
2022/08/05 06:49:38;;;;;;;5.22;4.15;;;27.10;99.90;;;;;;5042873;28;20254;-76
2022/08/05 06:52:06;;;;;;;3.78;3.47;;;27.20;99.90;;;;;;5043234;28;20223;-75
2022/08/05 06:54:33;;;;;;;3.50;3.22;;;27.20;99.90;;;;;;5053850;28;20223;-74
2022/08/05 06:57:00;;;;;;;3.90;3.60;;;27.30;99.90;;;;;;5057066;28;20201;-75
2022/08/05 06:59:27;;;;;;;3.50;3.30;;;27.30;99.90;;;;;;5047322;28;20203;-74
2022/08/05 07:01:54;;;;;;;3.58;3.28;;;27.40;99.90;;;;;;5049401;28;20202;-76
2022/08/05 07:04:21;;;;;;;3.35;3.15;;;27.50;99.90;;;;;;5054354;28;20195;-75
2022/08/05 07:06:50;;;;;;;3.92;3.63;;;27.60;99.90;;;;;;5056545;28;20201;-76
2022/08/05 07:09:17;;;;;;;3.80;3.60;;;27.70;99.90;;;;;;5055175;28;20249;-78
2022/08/05 07:11:44;;;;;;;3.65;3.35;;;27.80;99.90;;;;;;5057900;28;20194;-77
2022/08/05 07:16:59;;;;;;;4.10;3.60;;;27.90;99.90;;;;;;5053736;28;21214;-76
2022/08/05 07:19:27;;;;;;;3.95;3.65;;;27.90;99.90;;;;;;5059127;28;20534;-76
2022/08/05 07:21:56;;;;;;;3.83;3.53;;;27.90;99.90;;;;;;5056598;28;20202;-77
2022/08/05 07:24:24;;;;;;;4.72;3.72;;;27.90;99.90;;;;;;5053928;28;20283;-77
2022/08/05 07:26:52;;;;;;;3.88;3.58;;;27.90;99.90;;;;;;5051695;28;20203;-76
2022/08/05 07:29:19;;;;;;;4.15;3.15;;;28.00;99.90;;;;;;5050327;28;20199;-76
2022/08/05 07:31:46;;;;;;;4.00;3.70;;;28.20;99.90;;;;;;5053431;28;20186;-74
2022/08/05 07:34:13;;;;;;;3.90;3.60;;;28.30;99.90;;;;;;5053197;28;20202;-76
2022/08/05 07:36:40;;;;;;;3.92;3.58;;;28.30;99.90;;;;;;5050290;28;20210;-77
2022/08/05 07:39:09;;;;;;;4.80;3.90;;;28.40;99.90;;;;;;5034383;28;20215;-76
2022/08/05 07:41:36;;;;;;;5.28;3.63;;;28.40;99.90;;;;;;5035380;28;20215;-76
2022/08/05 07:44:05;;;;;;;3.65;3.35;;;28.60;99.90;;;;;;5026298;28;20709;-76
2022/08/05 07:46:33;;;;;;;4.10;3.80;;;28.60;99.90;;;;;;5026070;28;20609;-77
2022/08/05 07:49:02;;;;;;;4.03;3.63;;;28.70;99.90;;;;;;5027101;28;20233;-76
2022/08/05 07:51:29;;;;;;;3.55;3.25;;;28.70;99.90;;;;;;5025169;28;20563;-79
2022/08/05 07:53:56;;;;;;;4.22;3.92;;;28.90;99.90;;;;;;5044116;28;20225;-77
2022/08/05 07:56:24;;;;;;;4.78;3.67;;;29.00;99.90;;;;;;5048504;28;20273;-76
2022/08/05 07:58:51;;;;;;;3.55;3.35;;;29.20;99.90;;;;;;5049114;28;20211;-76
2022/08/05 08:01:19;;;;;;;3.60;3.30;;;29.30;99.90;;;;;;5045334;28;20218;-78
2022/08/05 08:03:46;;;;;;;4.20;3.83;;;29.40;99.90;;;;;;5044014;28;20720;-77
2022/08/05 08:06:14;;;;;;;4.10;3.80;;;29.30;99.90;;;;;;5046938;28;20226;-78
2022/08/05 08:08:41;;;;;;;4.18;3.88;;;29.30;99.90;;;;;;5046576;28;20594;-77
2022/08/05 08:11:08;;;;;;;4.28;3.88;;;29.50;99.90;;;;;;5046673;28;20187;-76
2022/08/05 08:13:37;;;;;;;4.25;3.88;;;29.50;99.90;;;;;;5046793;28;20223;-75
2022/08/05 08:16:05;;;;;;;4.20;3.88;;;29.60;99.90;;;;;;5048139;28;20215;-77
2022/08/05 08:18:32;;;;;;;5.75;4.05;;;29.60;99.90;;;;;;5046969;28;20210;-75
2022/08/05 08:20:59;;;;;;;4.47;4.15;;;29.60;99.90;;;;;;5047996;28;20218;-76
2022/08/05 08:23:26;;;;;;;4.18;3.88;;;29.50;99.90;;;;;;5046019;28;20222;-75
2022/08/05 08:25:53;;;;;;;4.00;3.70;;;29.50;99.90;;;;;;5047060;28;20238;-77
2022/08/05 08:28:20;;;;;;;4.20;3.70;;;29.70;99.90;;;;;;5046833;28;20215;-79
2022/08/05 08:30:49;;;;;;;4.30;4.00;;;29.90;99.90;;;;;;5045200;28;20575;-77
2022/08/05 08:33:16;;;;;;;5.20;3.88;;;30.10;99.90;;;;;;5047037;28;20221;-78
2022/08/05 08:35:43;;;;;;;3.95;3.60;;;30.10;99.90;;;;;;5045799;28;20700;-77
2022/08/05 08:38:11;;;;;;;4.47;3.97;;;30.20;99.90;;;;;;5047335;28;20225;-78
2022/08/05 08:40:39;;;;;;;5.90;4.20;;;30.30;99.90;;;;;;5044925;28;20305;-74
2022/08/05 08:43:07;;;;;;;4.22;3.92;;;30.20;99.90;;;;;;5048169;28;20234;-77
2022/08/05 08:45:37;;;;;;;4.20;3.80;;;30.30;99.90;;;;;;5043994;28;20254;-77
2022/08/05 08:48:06;;;;;;;4.03;3.60;;;30.30;99.90;;;;;;5048101;28;20210;-77
2022/08/05 08:50:34;;;;;;;3.97;3.67;;;30.40;99.90;;;;;;5060273;28;20222;-74
2022/08/05 08:53:04;;;;;;;4.35;3.85;;;30.40;99.90;;;;;;5063953;28;20229;-75
2022/08/05 08:55:33;;;;;;;4.25;3.85;;;30.60;99.90;;;;;;5056206;28;20242;-76
2022/08/05 08:58:01;;;;;;;4.40;3.90;;;30.50;99.90;;;;;;5060859;28;20219;-78
2022/08/05 09:00:28;;;;;;;3.92;3.60;;;30.50;99.90;;;;;;5054961;28;20222;-76
2022/08/05 09:02:57;;;;;;;4.20;3.90;;;30.60;99.90;;;;;;5056716;28;20214;-79
2022/08/05 09:05:26;;;;;;;3.60;3.30;;;30.90;99.90;;;;;;5062374;28;20222;-78
2022/08/05 09:07:54;;;;;;;3.75;3.42;;;31.00;99.90;;;;;;5061103;28;20837;-75
2022/08/05 09:10:21;;;;;;;7.03;4.25;;;30.90;99.90;;;;;;5050760;28;20191;-74
2022/08/05 09:12:48;;;;;;;4.22;3.80;;;30.90;99.90;;;;;;5057679;28;20740;-76
2022/08/05 09:15:16;;;;;;;4.78;3.53;;;31.00;99.90;;;;;;5060645;28;20218;-75
2022/08/05 09:17:43;;;;;;;5.32;3.60;;;31.10;99.90;;;;;;5062160;28;20264;-75
2022/08/05 09:20:13;;;;;;;5.22;3.70;;;31.10;99.90;;;;;;5055836;28;20240;-76
2022/08/05 09:23:11;;;;;;;5.40;3.60;;;31.30;99.90;;;;;;5052839;28;20595;-76
2022/08/05 09:25:39;;;;;;;4.70;4.20;;;31.40;99.90;;;;;;5055949;28;20266;-76
2022/08/05 09:28:14;;;;;;;3.55;3.33;;;31.30;99.90;;;;;;5053041;28;20222;-77
2022/08/05 09:30:53;;;;;;;4.10;3.42;;;31.30;99.90;;;;;;5051652;28;20278;-76
2022/08/05 09:33:20;;;;;;;2.97;2.80;;;31.40;99.90;;;;;;5057672;28;20210;-77
2022/08/05 09:35:58;;;;;;;5.20;3.13;;;31.50;99.90;;;;;;5058325;28;20214;-77
2022/08/05 09:38:27;;;;;;;3.58;3.20;;;31.80;99.90;;;;;;5048497;28;20763;-77
2022/08/05 09:41:02;;;;;;;4.13;3.40;;;31.80;99.90;;;;;;5057769;28;20299;-75
2022/08/05 09:43:32;;;;;;;3.60;3.30;;;31.80;99.90;;;;;;5056845;28;20729;-77
2022/08/05 09:46:00;;;;;;;3.50;3.20;;;32.00;99.90;;;;;;5058915;28;20222;-82
2022/08/05 09:48:29;;;;;;;4.13;3.33;;;32.00;99.90;;;;;;5044968;28;20296;-78
2022/08/05 09:50:57;;;;;;;3.58;2.88;;;32.20;99.90;;;;;;5049168;28;20188;-80
2022/08/05 09:53:27;;;;;;;3.13;2.92;;;32.40;99.90;;;;;;5048513;28;20215;-79
2022/08/05 09:55:58;;;;;;;3.08;2.78;;;32.30;99.90;;;;;;5051195;28;20226;-78
2022/08/05 09:58:27;;;;;;;3.22;2.95;;;32.60;99.90;;;;;;5049695;28;20214;-77
2022/08/05 10:00:59;;;;;;;3.28;2.60;;;32.80;99.90;;;;;;5049301;28;20726;-77
2022/08/05 10:03:27;;;;;;;3.22;2.95;;;32.90;99.90;;;;;;5032158;28;20211;-76
2022/08/05 10:06:02;;;;;;;3.30;3.10;;;32.90;99.90;;;;;;5026253;28;20585;-76
2022/08/05 10:08:30;;;;;;;3.20;2.90;;;32.90;99.90;;;;;;5027805;28;20223;-77
2022/08/05 10:10:58;;;;;;;4.00;3.22;;;32.80;99.90;;;;;;5028617;28;20203;-77
2022/08/05 10:13:31;;;;;;;2.97;2.78;;;32.80;99.90;;;;;;5021071;28;20749;-76
2022/08/05 10:15:59;;;;;;;3.30;3.08;;;32.80;99.90;;;;;;5028258;28;20243;-75
2022/08/05 10:18:30;;;;;;;3.40;3.10;;;32.70;99.90;;;;;;5027552;28;21095;-76
2022/08/05 10:21:00;;;;;;;3.28;3.08;;;32.70;99.90;;;;;;5027064;28;20218;-77
2022/08/05 10:23:30;;;;;;;3.17;2.88;;;32.90;99.90;;;;;;5026717;28;20608;-76
2022/08/05 10:25:59;;;;;;;2.63;2.42;;;32.90;99.90;;;;;;5027714;28;20239;-76
2022/08/05 10:28:27;;;;;;;3.42;2.80;;;32.90;99.90;;;;;;5027976;28;20223;-76
2022/08/05 10:30:57;;;;;;;2.80;2.60;;;32.70;99.90;;;;;;5026761;28;20230;-77
2022/08/05 10:33:27;;;;;;;2.90;2.70;;;32.70;99.90;;;;;;5022843;28;20226;-75
2022/08/05 10:35:56;;;;;;;3.75;3.45;;;32.80;99.90;;;;;;5032998;28;20234;-76
2022/08/05 10:38:26;;;;;;;4.05;3.05;;;32.70;99.90;;;;;;5030117;28;20216;-75
2022/08/05 10:41:11;;;;;;;3.55;3.22;;;32.80;99.90;;;;;;5024040;28;20227;-76
2022/08/05 10:43:47;;;;;;;3.17;2.97;;;32.80;99.90;;;;;;5025091;28;20220;-77
2022/08/05 10:46:17;;;;;;;3.42;3.22;;;32.90;99.90;;;;;;5028000;28;20231;-81
2022/08/05 10:48:45;;;;;;;3.83;3.53;;;32.90;99.90;;;;;;5026188;28;20258;-78
2022/08/05 10:51:13;;;;;;;3.92;2.85;;;33.20;99.90;;;;;;5027302;28;20195;-79
2022/08/05 10:53:51;;;;;;;3.47;3.00;;;33.10;99.90;;;;;;5028444;28;20227;-78
2022/08/05 10:56:21;;;;;;;3.20;2.90;;;33.00;99.90;;;;;;5026826;28;20226;-77
2022/08/05 10:59:04;;;;;;;3.17;2.92;;;32.80;99.90;;;;;;5024533;28;20223;-76
2022/08/05 11:01:33;;;;;;;4.05;3.30;;;33.00;99.90;;;;;;5031293;28;20296;-78
2022/08/05 11:04:10;;;;;;;3.30;3.03;;;33.10;99.90;;;;;;5026086;28;20411;-76
2022/08/05 11:07:07;;;;;;;3.40;3.10;;;33.10;99.90;;;;;;5025702;28;20762;-76
2022/08/05 11:09:42;;;;;;;4.35;2.67;;;33.60;99.90;;;;;;5037612;28;20218;-77
2022/08/05 11:12:45;;;;;;;3.10;2.80;;;33.80;99.90;;;;;;5033683;28;20229;-78
2022/08/05 11:15:24;;;;;;;4.10;3.13;;;33.90;99.90;;;;;;5019292;28;20219;-77
2022/08/05 11:17:52;;;;;;;3.08;2.88;;;34.00;99.90;;;;;;5020073;28;20219;-77
2022/08/05 11:20:36;;;;;;;3.00;2.80;;;34.00;99.90;;;;;;5035031;28;20640;-77
2022/08/05 11:23:35;;;;;;;3.42;3.22;;;34.00;99.90;;;;;;5036073;28;20254;-78
2022/08/05 11:26:08;;;;;;;2.83;2.72;;;33.90;99.90;;;;;;5036494;28;20633;-77
2022/08/05 11:28:43;;;;;;;3.33;2.38;;;34.00;99.90;;;;;;5048369;28;20337;-77
2022/08/05 11:31:29;;;;;;;4.18;2.83;;;34.20;99.90;;;;;;5035809;28;20203;-76
2022/08/05 11:34:01;;;;;;;3.13;2.75;;;34.20;99.90;;;;;;5032891;28;20287;-78
2022/08/05 11:36:50;;;;;;;3.28;3.05;;;34.20;99.90;;;;;;5041605;28;20254;-76
2022/08/05 11:39:47;;;;;;;3.22;2.72;;;34.10;99.90;;;;;;5044314;28;20229;-76
2022/08/05 11:42:17;;;;;;;4.80;3.17;;;34.10;99.90;;;;;;5050435;28;20226;-77
2022/08/05 11:44:46;;;;;;;2.88;2.67;;;34.20;99.90;;;;;;5054484;28;20261;-77
2022/08/05 11:47:14;;;;;;;3.42;2.55;;;34.40;99.90;;;;;;5091561;22;20225;-75
2022/08/05 11:49:41;;;;;;;3.28;2.97;;;34.60;99.90;;;;;;5067170;28;20220;-76
2022/08/05 11:52:09;;;;;;;3.15;2.63;;;34.70;99.90;;;;;;5078119;28;20707;-76
2022/08/05 11:54:37;;;;;;;2.85;2.60;;;34.90;99.90;;;;;;5079026;28;20198;-75
2022/08/05 11:57:05;;;;;;;8.07;3.17;;;35.00;99.90;;;;;;5065958;28;20280;-75
2022/08/05 11:59:33;;;;;;;2.97;2.78;;;35.00;99.90;;;;;;5053023;28;20207;-75
2022/08/05 12:02:04;;;;;;;4.22;2.90;;;34.90;99.90;;;;;;5047939;28;20321;-76
2022/08/05 12:04:39;;;;;;;3.67;3.10;;;34.90;99.90;;;;;;5063264;28;20266;-74
2022/08/05 12:07:07;;;;;;;2.65;2.55;;;34.90;99.90;;;;;;5050206;28;20222;-75
2022/08/05 12:09:38;;;;;;;2.97;2.60;;;34.80;99.90;;;;;;5060489;28;20591;-74
2022/08/05 12:12:06;;;;;;;3.15;2.85;;;34.90;99.90;;;;;;5058132;28;20219;-76
2022/08/05 12:14:38;;;;;;;2.38;2.28;;;35.00;99.90;;;;;;5057273;28;20205;-76
2022/08/05 12:17:09;;;;;;;4.72;2.80;;;35.10;99.90;;;;;;5059086;28;20222;-76
2022/08/05 12:19:44;;;;;;;3.00;2.72;;;35.10;99.90;;;;;;5047412;28;20203;-76
2022/08/05 12:22:12;;;;;;;3.42;2.55;;;35.10;99.90;;;;;;5054282;28;20237;-76
2022/08/05 12:24:44;;;;;;;2.78;2.58;;;35.10;99.90;;;;;;5047697;28;20215;-76
2022/08/05 12:27:20;;;;;;;5.45;2.65;;;35.10;99.90;;;;;;5055532;28;20221;-75
2022/08/05 12:29:57;;;;;;;3.03;2.72;;;35.20;99.90;;;;;;5055381;28;20600;-75
2022/08/05 12:32:26;;;;;;;2.83;2.53;;;35.10;99.90;;;;;;5058388;28;20220;-75
2022/08/05 12:34:53;;;;;;;5.63;2.63;;;35.10;99.90;;;;;;5061624;28;20263;-75
2022/08/05 12:37:20;;;;;;;2.97;2.78;;;35.00;99.90;;;;;;5059388;28;20593;-75
2022/08/05 12:39:48;;;;;;;2.53;2.42;;;34.90;99.90;;;;;;5062635;28;20191;-75
2022/08/05 12:42:18;;;;;;;5.97;2.50;;;35.00;99.90;;;;;;5049441;28;20808;-75
2022/08/05 12:44:46;;;;;;;3.88;2.78;;;35.10;99.90;;;;;;5053955;28;20203;-76
2022/08/05 12:47:14;;;;;;;3.72;2.55;;;35.10;99.90;;;;;;5051225;28;20230;-75
2022/08/05 12:49:44;;;;;;;5.47;2.42;;;35.20;99.90;;;;;;5053910;28;20811;-75
2022/08/05 12:52:13;;;;;;;2.83;2.63;;;35.40;99.90;;;;;;5053643;28;20559;-74
2022/08/05 12:54:41;;;;;;;4.15;2.78;;;35.40;99.90;;;;;;5050832;28;20203;-76
2022/08/05 12:57:10;;;;;;;2.67;2.47;;;35.20;99.90;;;;;;5055891;28;20222;-76
2022/08/05 12:59:45;;;;;;;4.20;2.60;;;35.20;99.90;;;;;;5060065;28;20237;-75
2022/08/05 13:02:15;;;;;;;4.78;2.70;;;35.20;99.90;;;;;;5057822;28;20226;-76